sensor_id;sensor_type;location;lat;lon;timestamp;temperature;humidity
23405;DHT22;11875;49.356;2.718;2023-06-26T00:00:02;24.50;97.80
23405;DHT22;11875;49.356;2.718;2023-06-26T00:02:29;24.40;97.80
23405;DHT22;11875;49.356;2.718;2023-06-26T00:04:58;24.40;97.60
23405;DHT22;11875;49.356;2.718;2023-06-26T00:07:23;24.40;97.70
23405;DHT22;11875;49.356;2.718;2023-06-26T00:09:49;24.20;97.60
23405;DHT22;11875;49.356;2.718;2023-06-26T00:12:15;24.10;97.80
23405;DHT22;11875;49.356;2.718;2023-06-26T00:14:40;24.00;97.80
23405;DHT22;11875;49.356;2.718;2023-06-26T00:17:06;24.00;97.90
23405;DHT22;11875;49.356;2.718;2023-06-26T00:19:31;24.00;97.90
23405;DHT22;11875;49.356;2.718;2023-06-26T00:21:58;24.00;98.00
23405;DHT22;11875;49.356;2.718;2023-06-26T00:24:24;24.00;97.90
23405;DHT22;11875;49.356;2.718;2023-06-26T00:26:49;23.90;98.00
23405;DHT22;11875;49.356;2.718;2023-06-26T00:29:15;23.90;98.10
23405;DHT22;11875;49.356;2.718;2023-06-26T00:31:41;23.80;98.20
23405;DHT22;11875;49.356;2.718;2023-06-26T00:34:07;23.80;98.20
23405;DHT22;11875;49.356;2.718;2023-06-26T00:36:32;23.80;98.20
23405;DHT22;11875;49.356;2.718;2023-06-26T00:38:58;23.80;98.20
23405;DHT22;11875;49.356;2.718;2023-06-26T00:41:24;23.70;98.20
23405;DHT22;11875;49.356;2.718;2023-06-26T00:43:50;23.60;98.20
23405;DHT22;11875;49.356;2.718;2023-06-26T00:46:16;23.60;98.20
23405;DHT22;11875;49.356;2.718;2023-06-26T00:48:44;23.60;98.30
23405;DHT22;11875;49.356;2.718;2023-06-26T00:51:11;23.60;98.20
23405;DHT22;11875;49.356;2.718;2023-06-26T00:53:37;23.50;98.20
23405;DHT22;11875;49.356;2.718;2023-06-26T00:56:03;23.50;98.10
23405;DHT22;11875;49.356;2.718;2023-06-26T00:58:30;23.50;98.10
23405;DHT22;11875;49.356;2.718;2023-06-26T01:00:55;23.50;98.10
23405;DHT22;11875;49.356;2.718;2023-06-26T01:03:23;23.40;98.10
23405;DHT22;11875;49.356;2.718;2023-06-26T01:05:51;23.40;98.00
23405;DHT22;11875;49.356;2.718;2023-06-26T01:08:18;23.30;98.20
23405;DHT22;11875;49.356;2.718;2023-06-26T01:10:44;23.30;98.20
23405;DHT22;11875;49.356;2.718;2023-06-26T01:13:12;23.20;98.30
23405;DHT22;11875;49.356;2.718;2023-06-26T01:15:38;23.10;98.20
23405;DHT22;11875;49.356;2.718;2023-06-26T01:18:05;23.00;98.30
23405;DHT22;11875;49.356;2.718;2023-06-26T01:20:32;23.00;98.30
23405;DHT22;11875;49.356;2.718;2023-06-26T01:28:17;22.70;98.40
23405;DHT22;11875;49.356;2.718;2023-06-26T01:30:45;22.70;98.30
23405;DHT22;11875;49.356;2.718;2023-06-26T01:33:12;22.70;98.30
23405;DHT22;11875;49.356;2.718;2023-06-26T01:35:39;22.60;98.30
23405;DHT22;11875;49.356;2.718;2023-06-26T01:38:13;22.60;98.40
23405;DHT22;11875;49.356;2.718;2023-06-26T01:40:39;22.70;98.60
23405;DHT22;11875;49.356;2.718;2023-06-26T01:43:07;22.70;98.60
23405;DHT22;11875;49.356;2.718;2023-06-26T01:45:37;22.70;98.40
23405;DHT22;11875;49.356;2.718;2023-06-26T01:48:06;22.70;98.60
23405;DHT22;11875;49.356;2.718;2023-06-26T01:50:36;22.60;98.60
23405;DHT22;11875;49.356;2.718;2023-06-26T01:53:10;22.50;98.60
23405;DHT22;11875;49.356;2.718;2023-06-26T01:58:02;22.30;98.80
23405;DHT22;11875;49.356;2.718;2023-06-26T02:00:28;22.30;99.00
23405;DHT22;11875;49.356;2.718;2023-06-26T02:02:54;22.20;98.90
23405;DHT22;11875;49.356;2.718;2023-06-26T02:05:20;22.20;99.00
23405;DHT22;11875;49.356;2.718;2023-06-26T02:07:46;22.10;99.30
23405;DHT22;11875;49.356;2.718;2023-06-26T02:10:11;22.10;98.90
23405;DHT22;11875;49.356;2.718;2023-06-26T02:12:37;22.10;99.00
23405;DHT22;11875;49.356;2.718;2023-06-26T02:15:03;22.10;98.90
23405;DHT22;11875;49.356;2.718;2023-06-26T02:17:30;22.20;99.00
23405;DHT22;11875;49.356;2.718;2023-06-26T02:19:55;22.00;99.20
23405;DHT22;11875;49.356;2.718;2023-06-26T02:22:21;22.00;99.00
23405;DHT22;11875;49.356;2.718;2023-06-26T02:24:47;20.60;98.50
23405;DHT22;11875;49.356;2.718;2023-06-26T02:27:13;21.90;99.10
23405;DHT22;11875;49.356;2.718;2023-06-26T02:29:39;22.00;99.00
23405;DHT22;11875;49.356;2.718;2023-06-26T02:32:06;22.00;98.90
23405;DHT22;11875;49.356;2.718;2023-06-26T02:34:31;21.90;98.90
23405;DHT22;11875;49.356;2.718;2023-06-26T02:36:57;21.80;98.90
23405;DHT22;11875;49.356;2.718;2023-06-26T02:39:24;21.80;99.00
23405;DHT22;11875;49.356;2.718;2023-06-26T02:41:49;21.80;99.10
23405;DHT22;11875;49.356;2.718;2023-06-26T02:44:15;21.80;98.90
23405;DHT22;11875;49.356;2.718;2023-06-26T02:46:40;21.70;99.10
23405;DHT22;11875;49.356;2.718;2023-06-26T02:49:06;21.70;99.00
23405;DHT22;11875;49.356;2.718;2023-06-26T02:51:35;21.70;98.90
23405;DHT22;11875;49.356;2.718;2023-06-26T02:54:01;21.70;98.90
23405;DHT22;11875;49.356;2.718;2023-06-26T02:56:27;21.60;99.10
23405;DHT22;11875;49.356;2.718;2023-06-26T02:58:56;21.50;99.00
23405;DHT22;11875;49.356;2.718;2023-06-26T03:01:21;21.50;99.10
23405;DHT22;11875;49.356;2.718;2023-06-26T03:03:47;21.40;99.10
23405;DHT22;11875;49.356;2.718;2023-06-26T03:06:13;21.40;99.20
23405;DHT22;11875;49.356;2.718;2023-06-26T03:08:39;21.40;99.00
23405;DHT22;11875;49.356;2.718;2023-06-26T03:11:06;21.40;99.10
23405;DHT22;11875;49.356;2.718;2023-06-26T03:13:33;21.30;99.10
23405;DHT22;11875;49.356;2.718;2023-06-26T03:15:59;21.30;99.00
23405;DHT22;11875;49.356;2.718;2023-06-26T03:18:25;21.20;99.10
23405;DHT22;11875;49.356;2.718;2023-06-26T03:20:52;21.30;99.30
23405;DHT22;11875;49.356;2.718;2023-06-26T03:23:19;21.20;99.20
23405;DHT22;11875;49.356;2.718;2023-06-26T03:25:45;21.20;99.10
23405;DHT22;11875;49.356;2.718;2023-06-26T03:28:11;21.20;99.30
23405;DHT22;11875;49.356;2.718;2023-06-26T03:30:37;21.10;99.20
23405;DHT22;11875;49.356;2.718;2023-06-26T03:33:02;21.00;99.20
23405;DHT22;11875;49.356;2.718;2023-06-26T03:35:28;21.00;99.30
23405;DHT22;11875;49.356;2.718;2023-06-26T03:37:54;21.00;99.20
23405;DHT22;11875;49.356;2.718;2023-06-26T03:40:19;21.00;99.40
23405;DHT22;11875;49.356;2.718;2023-06-26T03:42:45;21.00;99.30
23405;DHT22;11875;49.356;2.718;2023-06-26T03:45:11;21.10;99.30
23405;DHT22;11875;49.356;2.718;2023-06-26T03:47:37;21.10;99.30
23405;DHT22;11875;49.356;2.718;2023-06-26T03:50:02;21.00;99.10
23405;DHT22;11875;49.356;2.718;2023-06-26T03:52:28;20.90;99.20
23405;DHT22;11875;49.356;2.718;2023-06-26T03:54:59;21.00;99.20
23405;DHT22;11875;49.356;2.718;2023-06-26T03:57:25;21.00;99.30
23405;DHT22;11875;49.356;2.718;2023-06-26T03:59:52;20.90;99.20
23405;DHT22;11875;49.356;2.718;2023-06-26T04:02:18;20.90;99.40
23405;DHT22;11875;49.356;2.718;2023-06-26T04:04:44;20.90;99.50
23405;DHT22;11875;49.356;2.718;2023-06-26T04:07:10;20.90;99.50
23405;DHT22;11875;49.356;2.718;2023-06-26T04:09:35;20.90;99.50
23405;DHT22;11875;49.356;2.718;2023-06-26T04:12:01;20.90;99.50
23405;DHT22;11875;49.356;2.718;2023-06-26T04:14:27;20.90;99.30
23405;DHT22;11875;49.356;2.718;2023-06-26T04:16:52;20.90;99.40
23405;DHT22;11875;49.356;2.718;2023-06-26T04:19:18;20.90;99.50
23405;DHT22;11875;49.356;2.718;2023-06-26T04:21:44;20.90;99.40
23405;DHT22;11875;49.356;2.718;2023-06-26T04:24:10;20.90;99.60
23405;DHT22;11875;49.356;2.718;2023-06-26T04:26:36;20.80;99.50
23405;DHT22;11875;49.356;2.718;2023-06-26T04:29:02;20.80;99.70
23405;DHT22;11875;49.356;2.718;2023-06-26T04:31:28;20.80;99.60
23405;DHT22;11875;49.356;2.718;2023-06-26T04:33:54;20.90;99.70
23405;DHT22;11875;49.356;2.718;2023-06-26T04:36:20;20.90;99.70
23405;DHT22;11875;49.356;2.718;2023-06-26T04:38:46;20.90;99.60
23405;DHT22;11875;49.356;2.718;2023-06-26T04:41:13;21.00;99.70
23405;DHT22;11875;49.356;2.718;2023-06-26T04:43:39;21.00;99.70
23405;DHT22;11875;49.356;2.718;2023-06-26T04:46:05;20.90;99.60
23405;DHT22;11875;49.356;2.718;2023-06-26T04:48:31;20.90;99.70
23405;DHT22;11875;49.356;2.718;2023-06-26T04:50:57;20.80;99.90
23405;DHT22;11875;49.356;2.718;2023-06-26T04:53:24;20.80;99.90
23405;DHT22;11875;49.356;2.718;2023-06-26T04:55:51;20.80;99.90
23405;DHT22;11875;49.356;2.718;2023-06-26T04:58:17;20.80;99.90
23405;DHT22;11875;49.356;2.718;2023-06-26T05:00:42;20.70;99.90
23405;DHT22;11875;49.356;2.718;2023-06-26T05:03:13;20.70;99.90
23405;DHT22;11875;49.356;2.718;2023-06-26T05:05:38;20.60;99.90
23405;DHT22;11875;49.356;2.718;2023-06-26T05:08:24;20.60;99.90
23405;DHT22;11875;49.356;2.718;2023-06-26T05:10:52;20.70;99.90
23405;DHT22;11875;49.356;2.718;2023-06-26T05:13:18;20.70;99.90
23405;DHT22;11875;49.356;2.718;2023-06-26T05:15:46;20.70;99.90
23405;DHT22;11875;49.356;2.718;2023-06-26T05:18:12;20.70;99.90
23405;DHT22;11875;49.356;2.718;2023-06-26T05:20:37;20.70;99.90
23405;DHT22;11875;49.356;2.718;2023-06-26T05:23:03;20.70;99.90
23405;DHT22;11875;49.356;2.718;2023-06-26T05:25:30;20.70;99.90
23405;DHT22;11875;49.356;2.718;2023-06-26T05:27:57;20.60;99.90
23405;DHT22;11875;49.356;2.718;2023-06-26T05:30:24;20.60;99.90
23405;DHT22;11875;49.356;2.718;2023-06-26T05:32:55;20.60;99.90
23405;DHT22;11875;49.356;2.718;2023-06-26T05:35:22;20.70;99.90
23405;DHT22;11875;49.356;2.718;2023-06-26T05:37:50;20.60;99.90
23405;DHT22;11875;49.356;2.718;2023-06-26T05:40:17;20.60;99.90
23405;DHT22;11875;49.356;2.718;2023-06-26T05:42:44;20.60;99.90
23405;DHT22;11875;49.356;2.718;2023-06-26T05:45:10;20.60;99.90
23405;DHT22;11875;49.356;2.718;2023-06-26T05:47:36;20.60;99.90
23405;DHT22;11875;49.356;2.718;2023-06-26T05:50:03;20.70;99.90
23405;DHT22;11875;49.356;2.718;2023-06-26T05:52:28;20.60;99.90
23405;DHT22;11875;49.356;2.718;2023-06-26T05:54:55;20.50;99.90
23405;DHT22;11875;49.356;2.718;2023-06-26T05:57:24;20.40;99.90
23405;DHT22;11875;49.356;2.718;2023-06-26T05:59:50;20.20;99.90
23405;DHT22;11875;49.356;2.718;2023-06-26T06:02:16;20.30;99.90
23405;DHT22;11875;49.356;2.718;2023-06-26T06:04:42;20.30;99.90
23405;DHT22;11875;49.356;2.718;2023-06-26T06:07:07;20.40;99.90
23405;DHT22;11875;49.356;2.718;2023-06-26T06:09:33;20.40;99.90
23405;DHT22;11875;49.356;2.718;2023-06-26T06:11:59;20.50;99.90
23405;DHT22;11875;49.356;2.718;2023-06-26T06:14:25;20.50;99.90
23405;DHT22;11875;49.356;2.718;2023-06-26T06:16:50;20.60;99.90
23405;DHT22;11875;49.356;2.718;2023-06-26T06:19:16;20.60;99.90
23405;DHT22;11875;49.356;2.718;2023-06-26T06:21:41;20.60;99.90
23405;DHT22;11875;49.356;2.718;2023-06-26T06:24:08;20.60;99.90
23405;DHT22;11875;49.356;2.718;2023-06-26T06:26:35;20.60;99.90
23405;DHT22;11875;49.356;2.718;2023-06-26T06:29:00;20.60;99.90
23405;DHT22;11875;49.356;2.718;2023-06-26T06:31:26;20.70;99.90
23405;DHT22;11875;49.356;2.718;2023-06-26T06:33:56;20.70;99.90
23405;DHT22;11875;49.356;2.718;2023-06-26T06:36:22;20.80;99.90
23405;DHT22;11875;49.356;2.718;2023-06-26T06:38:48;20.80;99.90
23405;DHT22;11875;49.356;2.718;2023-06-26T06:41:13;20.80;99.90
23405;DHT22;11875;49.356;2.718;2023-06-26T06:43:39;20.40;99.90
23405;DHT22;11875;49.356;2.718;2023-06-26T06:46:05;21.00;99.90
23405;DHT22;11875;49.356;2.718;2023-06-26T06:48:31;21.10;99.90
23405;DHT22;11875;49.356;2.718;2023-06-26T06:50:57;21.20;99.90
23405;DHT22;11875;49.356;2.718;2023-06-26T06:53:23;21.20;99.90
23405;DHT22;11875;49.356;2.718;2023-06-26T06:55:49;21.30;99.90
23405;DHT22;11875;49.356;2.718;2023-06-26T06:58:15;21.30;99.90
23405;DHT22;11875;49.356;2.718;2023-06-26T07:00:50;21.30;99.90
23405;DHT22;11875;49.356;2.718;2023-06-26T07:03:17;21.30;99.90
23405;DHT22;11875;49.356;2.718;2023-06-26T07:05:43;21.40;99.90
23405;DHT22;11875;49.356;2.718;2023-06-26T07:08:08;21.50;99.90
23405;DHT22;11875;49.356;2.718;2023-06-26T07:10:34;21.50;99.90
23405;DHT22;11875;49.356;2.718;2023-06-26T07:12:59;21.50;99.90
23405;DHT22;11875;49.356;2.718;2023-06-26T07:15:25;21.60;99.90
23405;DHT22;11875;49.356;2.718;2023-06-26T07:17:51;21.70;99.90
23405;DHT22;11875;49.356;2.718;2023-06-26T07:20:17;21.60;99.90
23405;DHT22;11875;49.356;2.718;2023-06-26T07:22:43;21.60;99.90
23405;DHT22;11875;49.356;2.718;2023-06-26T07:25:10;21.60;99.90
23405;DHT22;11875;49.356;2.718;2023-06-26T07:27:37;21.60;99.90
23405;DHT22;11875;49.356;2.718;2023-06-26T07:30:03;21.70;99.90
23405;DHT22;11875;49.356;2.718;2023-06-26T07:32:29;21.70;99.90
23405;DHT22;11875;49.356;2.718;2023-06-26T07:34:55;21.70;99.90
23405;DHT22;11875;49.356;2.718;2023-06-26T07:37:20;21.80;99.90
23405;DHT22;11875;49.356;2.718;2023-06-26T07:39:46;21.90;99.90
23405;DHT22;11875;49.356;2.718;2023-06-26T07:42:12;22.00;99.90
23405;DHT22;11875;49.356;2.718;2023-06-26T07:44:38;22.20;99.80
23405;DHT22;11875;49.356;2.718;2023-06-26T07:47:04;22.40;99.90
23405;DHT22;11875;49.356;2.718;2023-06-26T07:49:29;22.50;99.50
23405;DHT22;11875;49.356;2.718;2023-06-26T07:51:55;22.70;99.20
23405;DHT22;11875;49.356;2.718;2023-06-26T07:54:21;23.00;99.20
23405;DHT22;11875;49.356;2.718;2023-06-26T07:57:00;23.20;98.50
23405;DHT22;11875;49.356;2.718;2023-06-26T07:59:27;23.30;98.70
23405;DHT22;11875;49.356;2.718;2023-06-26T08:01:55;23.10;98.50
23405;DHT22;11875;49.356;2.718;2023-06-26T08:04:22;23.20;98.40
23405;DHT22;11875;49.356;2.718;2023-06-26T08:06:49;23.10;98.30
23405;DHT22;11875;49.356;2.718;2023-06-26T08:09:15;23.10;98.50
23405;DHT22;11875;49.356;2.718;2023-06-26T08:11:41;23.00;98.50
23405;DHT22;11875;49.356;2.718;2023-06-26T08:14:06;22.70;98.80
23405;DHT22;11875;49.356;2.718;2023-06-26T08:16:32;22.80;99.10
23405;DHT22;11875;49.356;2.718;2023-06-26T08:18:58;22.70;98.80
23405;DHT22;11875;49.356;2.718;2023-06-26T08:21:23;22.70;98.90
23405;DHT22;11875;49.356;2.718;2023-06-26T08:23:49;22.80;98.90
23405;DHT22;11875;49.356;2.718;2023-06-26T08:26:14;22.90;98.80
23405;DHT22;11875;49.356;2.718;2023-06-26T08:28:40;23.00;98.80
23405;DHT22;11875;49.356;2.718;2023-06-26T08:31:05;23.10;98.70
23405;DHT22;11875;49.356;2.718;2023-06-26T08:33:31;23.10;98.60
23405;DHT22;11875;49.356;2.718;2023-06-26T08:35:56;23.20;98.10
23405;DHT22;11875;49.356;2.718;2023-06-26T08:38:22;23.30;97.60
23405;DHT22;11875;49.356;2.718;2023-06-26T08:40:48;23.30;98.00
23405;DHT22;11875;49.356;2.718;2023-06-26T08:43:14;23.40;98.10
23405;DHT22;11875;49.356;2.718;2023-06-26T08:45:39;23.50;97.80
23405;DHT22;11875;49.356;2.718;2023-06-26T08:48:08;23.60;97.00
23405;DHT22;11875;49.356;2.718;2023-06-26T08:50:34;23.60;96.40
23405;DHT22;11875;49.356;2.718;2023-06-26T08:55:49;23.70;96.90
23405;DHT22;11875;49.356;2.718;2023-06-26T08:58:16;23.90;96.90
23405;DHT22;11875;49.356;2.718;2023-06-26T09:00:41;23.90;96.60
23405;DHT22;11875;49.356;2.718;2023-06-26T09:03:08;23.80;96.70
23405;DHT22;11875;49.356;2.718;2023-06-26T09:05:35;23.90;96.80
23405;DHT22;11875;49.356;2.718;2023-06-26T09:08:01;24.00;96.20
23405;DHT22;11875;49.356;2.718;2023-06-26T09:10:27;24.20;96.30
23405;DHT22;11875;49.356;2.718;2023-06-26T09:12:56;24.40;95.80
23405;DHT22;11875;49.356;2.718;2023-06-26T09:15:23;24.40;94.90
23405;DHT22;11875;49.356;2.718;2023-06-26T09:17:49;24.40;95.20
23405;DHT22;11875;49.356;2.718;2023-06-26T09:20:15;24.40;95.30
23405;DHT22;11875;49.356;2.718;2023-06-26T09:22:47;24.20;94.90
23405;DHT22;11875;49.356;2.718;2023-06-26T09:25:13;24.30;95.30
23405;DHT22;11875;49.356;2.718;2023-06-26T09:27:38;24.40;94.80
23405;DHT22;11875;49.356;2.718;2023-06-26T09:30:05;24.40;94.20
23405;DHT22;11875;49.356;2.718;2023-06-26T09:32:37;24.60;94.20
23405;DHT22;11875;49.356;2.718;2023-06-26T09:35:03;24.80;94.10
23405;DHT22;11875;49.356;2.718;2023-06-26T09:37:29;24.90;93.60
23405;DHT22;11875;49.356;2.718;2023-06-26T09:39:55;25.00;93.80
23405;DHT22;11875;49.356;2.718;2023-06-26T09:42:21;25.10;93.30
23405;DHT22;11875;49.356;2.718;2023-06-26T09:44:47;25.00;93.30
23405;DHT22;11875;49.356;2.718;2023-06-26T09:47:20;25.10;93.60
23405;DHT22;11875;49.356;2.718;2023-06-26T09:49:46;25.20;93.20
23405;DHT22;11875;49.356;2.718;2023-06-26T09:52:15;25.40;93.00
23405;DHT22;11875;49.356;2.718;2023-06-26T09:54:45;25.40;92.70
23405;DHT22;11875;49.356;2.718;2023-06-26T09:57:13;25.30;92.50
23405;DHT22;11875;49.356;2.718;2023-06-26T09:59:39;25.30;92.70
23405;DHT22;11875;49.356;2.718;2023-06-26T10:02:06;25.30;92.40
23405;DHT22;11875;49.356;2.718;2023-06-26T10:04:32;25.40;92.70
23405;DHT22;11875;49.356;2.718;2023-06-26T10:07:01;25.50;92.50
23405;DHT22;11875;49.356;2.718;2023-06-26T10:09:28;25.50;92.10
23405;DHT22;11875;49.356;2.718;2023-06-26T10:12:02;25.60;91.90
23405;DHT22;11875;49.356;2.718;2023-06-26T10:14:34;25.80;91.40
23405;DHT22;11875;49.356;2.718;2023-06-26T10:17:04;25.80;91.70
23405;DHT22;11875;49.356;2.718;2023-06-26T10:19:30;25.60;91.80
23405;DHT22;11875;49.356;2.718;2023-06-26T10:21:58;25.60;92.30
23405;DHT22;11875;49.356;2.718;2023-06-26T10:24:26;25.50;92.30
23405;DHT22;11875;49.356;2.718;2023-06-26T10:27:03;25.40;92.20
23405;DHT22;11875;49.356;2.718;2023-06-26T10:29:30;25.30;92.10
23405;DHT22;11875;49.356;2.718;2023-06-26T10:31:58;25.40;92.20
23405;DHT22;11875;49.356;2.718;2023-06-26T10:34:25;25.50;91.70
23405;DHT22;11875;49.356;2.718;2023-06-26T10:37:04;25.60;91.30
23405;DHT22;11875;49.356;2.718;2023-06-26T10:39:48;25.70;89.30
23405;DHT22;11875;49.356;2.718;2023-06-26T10:42:18;25.90;90.30
23405;DHT22;11875;49.356;2.718;2023-06-26T10:44:45;26.00;90.30
23405;DHT22;11875;49.356;2.718;2023-06-26T10:47:28;26.30;90.40
23405;DHT22;11875;49.356;2.718;2023-06-26T10:49:54;26.20;87.90
23405;DHT22;11875;49.356;2.718;2023-06-26T10:52:19;25.90;87.50
23405;DHT22;11875;49.356;2.718;2023-06-26T10:54:45;25.90;89.10
23405;DHT22;11875;49.356;2.718;2023-06-26T10:57:10;26.00;88.50
23405;DHT22;11875;49.356;2.718;2023-06-26T10:59:39;26.10;85.10
23405;DHT22;11875;49.356;2.718;2023-06-26T11:02:05;25.90;83.90
23405;DHT22;11875;49.356;2.718;2023-06-26T11:07:22;26.00;85.20
23405;DHT22;11875;49.356;2.718;2023-06-26T11:12:43;26.20;87.40
23405;DHT22;11875;49.356;2.718;2023-06-26T11:15:13;26.10;86.70
23405;DHT22;11875;49.356;2.718;2023-06-26T11:17:39;26.00;86.60
23405;DHT22;11875;49.356;2.718;2023-06-26T11:20:07;26.00;86.50
23405;DHT22;11875;49.356;2.718;2023-06-26T11:22:37;26.00;86.80
23405;DHT22;11875;49.356;2.718;2023-06-26T11:25:05;25.90;87.30
23405;DHT22;11875;49.356;2.718;2023-06-26T11:27:40;25.90;86.20
23405;DHT22;11875;49.356;2.718;2023-06-26T11:30:07;25.90;88.60
23405;DHT22;11875;49.356;2.718;2023-06-26T11:32:34;25.70;88.00
23405;DHT22;11875;49.356;2.718;2023-06-26T11:34:59;25.70;87.70
23405;DHT22;11875;49.356;2.718;2023-06-26T11:37:25;25.80;87.80
23405;DHT22;11875;49.356;2.718;2023-06-26T11:39:52;25.90;86.60
23405;DHT22;11875;49.356;2.718;2023-06-26T11:42:19;25.90;84.20
23405;DHT22;11875;49.356;2.718;2023-06-26T11:44:44;26.10;86.20
23405;DHT22;11875;49.356;2.718;2023-06-26T11:47:20;26.10;86.00
23405;DHT22;11875;49.356;2.718;2023-06-26T11:49:48;26.10;86.20
23405;DHT22;11875;49.356;2.718;2023-06-26T11:52:15;26.10;86.90
23405;DHT22;11875;49.356;2.718;2023-06-26T11:54:42;26.20;87.20
23405;DHT22;11875;49.356;2.718;2023-06-26T11:57:08;26.20;87.80
23405;DHT22;11875;49.356;2.718;2023-06-26T11:59:39;26.10;86.40
23405;DHT22;11875;49.356;2.718;2023-06-26T12:02:10;26.00;85.80
23405;DHT22;11875;49.356;2.718;2023-06-26T12:04:40;25.80;86.50
23405;DHT22;11875;49.356;2.718;2023-06-26T12:07:08;25.80;85.80
23405;DHT22;11875;49.356;2.718;2023-06-26T12:09:43;25.90;87.90
23405;DHT22;11875;49.356;2.718;2023-06-26T12:12:10;26.00;88.00
23405;DHT22;11875;49.356;2.718;2023-06-26T12:14:36;26.10;85.60
23405;DHT22;11875;49.356;2.718;2023-06-26T12:17:08;26.10;84.40
23405;DHT22;11875;49.356;2.718;2023-06-26T12:19:34;26.30;86.40
23405;DHT22;11875;49.356;2.718;2023-06-26T12:22:06;26.40;86.40
23405;DHT22;11875;49.356;2.718;2023-06-26T12:24:31;26.40;85.50
23405;DHT22;11875;49.356;2.718;2023-06-26T12:26:57;26.40;84.50
23405;DHT22;11875;49.356;2.718;2023-06-26T12:29:32;26.30;84.00
23405;DHT22;11875;49.356;2.718;2023-06-26T12:31:58;26.30;83.00
23405;DHT22;11875;49.356;2.718;2023-06-26T12:34:48;26.40;83.90
23405;DHT22;11875;49.356;2.718;2023-06-26T12:37:15;26.50;81.30
23405;DHT22;11875;49.356;2.718;2023-06-26T12:39:55;26.60;80.10
23405;DHT22;11875;49.356;2.718;2023-06-26T12:42:28;26.60;80.60
23405;DHT22;11875;49.356;2.718;2023-06-26T12:44:54;26.60;81.80
23405;DHT22;11875;49.356;2.718;2023-06-26T12:47:29;26.70;81.90
23405;DHT22;11875;49.356;2.718;2023-06-26T12:49:56;26.60;82.90
23405;DHT22;11875;49.356;2.718;2023-06-26T12:52:23;26.50;83.40
23405;DHT22;11875;49.356;2.718;2023-06-26T12:54:53;26.40;82.80
23405;DHT22;11875;49.356;2.718;2023-06-26T12:57:18;26.50;81.10
23405;DHT22;11875;49.356;2.718;2023-06-26T12:59:44;26.50;78.80
23405;DHT22;11875;49.356;2.718;2023-06-26T13:02:10;26.60;78.90
23405;DHT22;11875;49.356;2.718;2023-06-26T13:04:37;26.70;83.20
23405;DHT22;11875;49.356;2.718;2023-06-26T13:07:05;26.70;82.10
23405;DHT22;11875;49.356;2.718;2023-06-26T13:09:32;26.80;81.20
23405;DHT22;11875;49.356;2.718;2023-06-26T13:11:58;26.90;82.60
23405;DHT22;11875;49.356;2.718;2023-06-26T13:14:24;26.80;80.90
23405;DHT22;11875;49.356;2.718;2023-06-26T13:16:50;26.80;79.10
23405;DHT22;11875;49.356;2.718;2023-06-26T13:19:15;26.50;79.90
23405;DHT22;11875;49.356;2.718;2023-06-26T13:21:41;26.50;81.00
23405;DHT22;11875;49.356;2.718;2023-06-26T13:24:07;26.50;80.30
23405;DHT22;11875;49.356;2.718;2023-06-26T13:26:33;26.50;82.90
23405;DHT22;11875;49.356;2.718;2023-06-26T13:28:59;26.70;82.10
23405;DHT22;11875;49.356;2.718;2023-06-26T13:31:24;26.80;81.20
23405;DHT22;11875;49.356;2.718;2023-06-26T13:33:50;26.90;80.20
23405;DHT22;11875;49.356;2.718;2023-06-26T13:36:18;27.10;80.80
23405;DHT22;11875;49.356;2.718;2023-06-26T13:38:44;27.20;79.20
23405;DHT22;11875;49.356;2.718;2023-06-26T13:41:10;27.10;79.80
23405;DHT22;11875;49.356;2.718;2023-06-26T13:43:36;27.30;81.60
23405;DHT22;11875;49.356;2.718;2023-06-26T13:46:02;27.50;80.40
23405;DHT22;11875;49.356;2.718;2023-06-26T13:48:28;27.50;80.10
23405;DHT22;11875;49.356;2.718;2023-06-26T13:50:54;27.40;79.80
23405;DHT22;11875;49.356;2.718;2023-06-26T13:53:22;27.30;80.00
23405;DHT22;11875;49.356;2.718;2023-06-26T13:55:47;27.20;81.30
23405;DHT22;11875;49.356;2.718;2023-06-26T13:58:13;27.10;80.70
23405;DHT22;11875;49.356;2.718;2023-06-26T14:00:40;27.20;79.40
23405;DHT22;11875;49.356;2.718;2023-06-26T14:03:06;27.20;77.90
23405;DHT22;11875;49.356;2.718;2023-06-26T14:05:33;27.30;78.10
23405;DHT22;11875;49.356;2.718;2023-06-26T14:07:59;27.50;77.20
23405;DHT22;11875;49.356;2.718;2023-06-26T14:10:24;27.40;78.50
23405;DHT22;11875;49.356;2.718;2023-06-26T14:12:50;27.50;77.70
23405;DHT22;11875;49.356;2.718;2023-06-26T14:15:16;27.50;78.30
23405;DHT22;11875;49.356;2.718;2023-06-26T14:17:42;27.60;77.90
23405;DHT22;11875;49.356;2.718;2023-06-26T14:20:08;27.60;77.30
23405;DHT22;11875;49.356;2.718;2023-06-26T14:22:42;27.60;78.10
23405;DHT22;11875;49.356;2.718;2023-06-26T14:25:09;27.70;75.60
23405;DHT22;11875;49.356;2.718;2023-06-26T14:27:35;27.60;76.70
23405;DHT22;11875;49.356;2.718;2023-06-26T14:30:01;27.40;76.60
23405;DHT22;11875;49.356;2.718;2023-06-26T14:32:27;27.20;76.70
23405;DHT22;11875;49.356;2.718;2023-06-26T14:34:52;27.10;77.00
23405;DHT22;11875;49.356;2.718;2023-06-26T14:37:18;27.00;77.00
23405;DHT22;11875;49.356;2.718;2023-06-26T14:39:44;26.90;78.50
23405;DHT22;11875;49.356;2.718;2023-06-26T14:42:10;26.90;77.10
23405;DHT22;11875;49.356;2.718;2023-06-26T14:44:36;26.90;76.70
23405;DHT22;11875;49.356;2.718;2023-06-26T14:47:01;27.00;76.10
23405;DHT22;11875;49.356;2.718;2023-06-26T14:49:27;26.90;77.10
23405;DHT22;11875;49.356;2.718;2023-06-26T14:51:53;26.90;76.30
23405;DHT22;11875;49.356;2.718;2023-06-26T14:54:18;26.90;77.10
23405;DHT22;11875;49.356;2.718;2023-06-26T14:56:44;26.90;77.40
23405;DHT22;11875;49.356;2.718;2023-06-26T14:59:11;27.00;77.00
23405;DHT22;11875;49.356;2.718;2023-06-26T15:01:38;27.20;77.80
23405;DHT22;11875;49.356;2.718;2023-06-26T15:04:04;27.20;76.10
23405;DHT22;11875;49.356;2.718;2023-06-26T15:06:30;27.30;75.60
23405;DHT22;11875;49.356;2.718;2023-06-26T15:08:55;27.30;76.30
23405;DHT22;11875;49.356;2.718;2023-06-26T15:11:21;27.30;76.50
23405;DHT22;11875;49.356;2.718;2023-06-26T15:13:46;27.40;75.60
23405;DHT22;11875;49.356;2.718;2023-06-26T15:16:12;27.40;75.30
23405;DHT22;11875;49.356;2.718;2023-06-26T15:18:38;27.20;76.30
23405;DHT22;11875;49.356;2.718;2023-06-26T15:21:03;27.10;77.20
23405;DHT22;11875;49.356;2.718;2023-06-26T15:23:29;27.10;79.70
23405;DHT22;11875;49.356;2.718;2023-06-26T15:25:55;27.00;76.70
23405;DHT22;11875;49.356;2.718;2023-06-26T15:28:20;27.00;76.60
23405;DHT22;11875;49.356;2.718;2023-06-26T15:30:46;27.10;78.30
23405;DHT22;11875;49.356;2.718;2023-06-26T15:33:12;27.20;76.90
23405;DHT22;11875;49.356;2.718;2023-06-26T15:35:38;27.00;77.20
23405;DHT22;11875;49.356;2.718;2023-06-26T15:38:04;26.90;77.90
23405;DHT22;11875;49.356;2.718;2023-06-26T15:40:30;26.80;78.20
23405;DHT22;11875;49.356;2.718;2023-06-26T15:42:55;26.80;77.70